Terminal Aerodrome Forecast
Issued by NWS

Home | Current Version | Previous Version | Text Only | Print | Product List | Glossary On
Versions: 1 2 3 4 5 6 7 8 9 10 11 12 13 14 15 16 17 18 19 20 21 22 23 24 25 26 27 28 29 30 31 32 33 34 35 36 37 38 39 40
614
FTAK31 PANC 232330
TAFADL
TAF
PADL 232330Z 2400/2424 16011G22KT P6SM VCSH FEW025 BKN120
      WS020/19050KT
      TEMPO 2400/2402 4SM -RASN BKN025
     FM240200 16011G25KT 3SM -RASN SCT005 OVC025 WS020/21045KT
     FM240400 16009KT 2SM -RASN BR SCT004 OVC018 WS020/22040KT
     FM240900 VRB03KT P6SM VCFG SCT004 BKN028
     FM241800 VRB05KT P6SM BKN035=

USA.gov is the U.S. government's official web portal to all federal, state and local government web resources and services.